KHYA/HYA METAR and TAF weather

Enter ICAO airport designator
Station Type Date Time Source
KHYA METAR 2021/09/16 09:56 UTC NOAA

KHYA 160956Z 19003KT 10SM BKN012 OVC019 23/22 A3011 RMK AO2 SLP195 T02280222 $


Station Type Date Time Source
KHYA Decoded METAR 2021/09/16 09:56 UTC NOAA

HYANNIS BARNSTABLE BOARDMN, MA, United States (KHYA) 41-40N 070-16W 22M
Sep 16, 2021 - 05:56 AM EDT / 2021.09.16 0956 UTC
Wind: from the S (190 degrees) at 3 MPH (3 KT):0
Visibility: 10 mile(s):0
Sky conditions: overcast
Temperature: 73.0 F (22.8 C)
Dew Point: 72.0 F (22.2 C)
Relative Humidity: 96%
Pressure (altimeter): 30.11 in. Hg (1019 hPa)
ob: KHYA 160956Z 19003KT 10SM BKN012 OVC019 23/22 A3011 RMK AO2 SLP195 T02280222
cycle: 10

Station Type Date Time Source
KHYA TAF 2021/09/16 09:40 UTC NOAA

TAF
AMD KHYA 160837Z 1609/1706 20005KT P6SM VCSH SCT008 BKN025
FM161000 02009KT P6SM -SHRA VCTS OVC008CB
FM161300 03007KT P6SM VCSH OVC035
FM162100 09006KT 6SM BR OVC025
FM162300 12006KT 4SM BR OVC015

Example: see airport list